^^
Saratoga-Weather Station Historical Data
Daily Summary for January 10, 2020 Units:  Both    English   Metric
Daily Weekly Monthly Yearly Custom
  High: Low: Average:
Temperature: 76.6 °F /  24.8 °C 50.5 °F /  10.3 °C 62.8 °F /  17.1 °C
Dew Point: 52.2 °F /  11.2 °C 43.2 °F /  6.2 °C 46.6 °F /  8.1 °C
Humidity: 81% 32% 58%
Wind Speed: 6mph /  9.7km/h - 0.9mph /  1.5km/h
Wind Gust: 8mph /  12.9km/h - -
Wind- - SSE
Pressure: 30.2 in /  1023.7 hPa 30.1 in /  1020.0 hPa -
Precipitation: 0 in /  0.0 mm    
Historical Graphs
 
 
Tabular Data for January 10, 2020
Time Temperature Dew Point Pressure Wind Wind Speed Wind Gust Humidity Rainfall Rate (Hourly) solar
00:03 61.3 °F /  16.3 °C 46.4 °F /  8 °C 30.2in /  1023.0hPa Calm   4mph /  6.4km/h 58% 0in /  0.0mm 0 W/m2
00:08 61.3 °F /  16.3 °C 46.9 °F /  8.3 °C 30.2in /  1023.0hPa West 2.9mph /  4.7km/h 4mph /  6.4km/h 59% 0in /  0.0mm 0 W/m2
00:13 61.2 °F /  16.2 °C 46.8 °F /  8.2 °C 30.2in /  1023.0hPa Calm   1mph /  1.6km/h 59% 0in /  0.0mm 0 W/m2
00:18 61 °F /  16.1 °C 46.6 °F /  8.1 °C 30.2in /  1023.0hPa WSW 0.9mph /  1.4km/h 3mph /  4.8km/h 59% 0in /  0.0mm 0 W/m2
00:23 60.4 °F /  15.8 °C 46.4 °F /  8 °C 30.2in /  1023.0hPa South 0.9mph /  1.4km/h 1mph /  1.6km/h 60% 0in /  0.0mm 0 W/m2
00:28 59.9 °F /  15.5 °C 46.8 °F /  8.2 °C 30.2in /  1023.0hPa South 0.9mph /  1.4km/h 2mph /  3.2km/h 62% 0in /  0.0mm 0 W/m2
00:33 59.4 °F /  15.2 °C 46.4 °F /  8 °C 30.2in /  1023.0hPa Calm   2mph /  3.2km/h 62% 0in /  0.0mm 0 W/m2
00:38 58.8 °F /  14.9 °C 46.2 °F /  7.9 °C 30.2in /  1023.0hPa Calm   1mph /  1.6km/h 63% 0in /  0.0mm 0 W/m2
00:43 58.5 °F /  14.7 °C 46.4 °F /  8 °C 30.2in /  1023.0hPa SW 2mph /  3.2km/h 2mph /  3.2km/h 64% 0in /  0.0mm 0 W/m2
00:48 58.5 °F /  14.7 °C 46.4 °F /  8 °C 30.2in /  1023.0hPa West 2mph /  3.2km/h 2mph /  3.2km/h 64% 0in /  0.0mm 0 W/m2
00:53 58.6 °F /  14.8 °C 46 °F /  7.8 °C 30.2in /  1023.0hPa SW 0.9mph /  1.4km/h 2mph /  3.2km/h 63% 0in /  0.0mm 0 W/m2
00:58 59.2 °F /  15.1 °C 46.2 °F /  7.9 °C 30.2in /  1023.0hPa West 2.9mph /  4.7km/h 3mph /  4.8km/h 62% 0in /  0.0mm 0 W/m2
01:03 59.5 °F /  15.3 °C 46 °F /  7.8 °C 30.2in /  1023.0hPa Calm   4mph /  6.4km/h 61% 0in /  0.0mm 0 W/m2
01:08 59.9 °F /  15.5 °C 46.4 °F /  8 °C 30.2in /  1022.7hPa NNW 0.9mph /  1.4km/h 3mph /  4.8km/h 61% 0in /  0.0mm 0 W/m2
01:13 60.3 °F /  15.7 °C 46.4 °F /  8 °C 30.2in /  1023.0hPa WNW 0.9mph /  1.4km/h 2mph /  3.2km/h 60% 0in /  0.0mm 0 W/m2
01:18 60.3 °F /  15.7 °C 46.4 °F /  8 °C 30.2in /  1023.0hPa WSW 0.9mph /  1.4km/h 1mph /  1.6km/h 60% 0in /  0.0mm 0 W/m2
01:23 60.1 °F /  15.6 °C 46.2 °F /  7.9 °C 30.2in /  1023.0hPa West 0.9mph /  1.4km/h 2mph /  3.2km/h 60% 0in /  0.0mm 0 W/m2
01:28 59.9 °F /  15.5 °C 46.4 °F /  8 °C 30.2in /  1022.7hPa Calm   1mph /  1.6km/h 61% 0in /  0.0mm 0 W/m2
01:34 59.5 °F /  15.3 °C 46 °F /  7.8 °C 30.2in /  1022.7hPa West 2mph /  3.2km/h 2mph /  3.2km/h 61% 0in /  0.0mm 0 W/m2
01:39 59.2 °F /  15.1 °C 46.2 °F /  7.9 °C 30.2in /  1022.7hPa Calm   1mph /  1.6km/h 62% 0in /  0.0mm 0 W/m2
01:44 58.6 °F /  14.8 °C 46 °F /  7.8 °C 30.2in /  1023.0hPa Calm   1mph /  1.6km/h 63% 0in /  0.0mm 0 W/m2
01:49 58.3 °F /  14.6 °C 46.2 °F /  7.9 °C 30.2in /  1022.7hPa West 0.9mph /  1.4km/h 2mph /  3.2km/h 64% 0in /  0.0mm 0 W/m2
01:54 57.9 °F /  14.4 °C 45.9 °F /  7.7 °C 30.2in /  1022.7hPa West 2mph /  3.2km/h 2mph /  3.2km/h 64% 0in /  0.0mm 0 W/m2
01:59 57.6 °F /  14.2 °C 45.9 °F /  7.7 °C 30.2in /  1022.7hPa West 0.9mph /  1.4km/h 2mph /  3.2km/h 65% 0in /  0.0mm 0 W/m2
02:04 57.4 °F /  14.1 °C 46 °F /  7.8 °C 30.2in /  1022.7hPa Calm   2mph /  3.2km/h 66% 0in /  0.0mm 0 W/m2
02:09 57.2 °F /  14 °C 45.9 °F /  7.7 °C 30.2in /  1022.7hPa Calm   2mph /  3.2km/h 66% 0in /  0.0mm 0 W/m2
02:14 57 °F /  13.9 °C 45.9 °F /  7.7 °C 30.2in /  1022.7hPa Calm   1mph /  1.6km/h 66% 0in /  0.0mm 0 W/m2
02:19 57 °F /  13.9 °C 45.9 °F /  7.7 °C 30.2in /  1022.7hPa Calm   1mph /  1.6km/h 66% 0in /  0.0mm 0 W/m2
02:24 57 °F /  13.9 °C 46.2 °F /  7.9 °C 30.2in /  1022.7hPa Calm   2mph /  3.2km/h 67% 0in /  0.0mm 0 W/m2
02:29 56.8 °F /  13.8 °C 46 °F /  7.8 °C 30.2in /  1022.7hPa SW 0.9mph /  1.4km/h 1mph /  1.6km/h 67% 0in /  0.0mm 0 W/m2
02:34 56.7 °F /  13.7 °C 45.9 °F /  7.7 °C 30.2in /  1022.7hPa Calm   2mph /  3.2km/h 67% 0in /  0.0mm 0 W/m2
02:39 56.5 °F /  13.6 °C 46 °F /  7.8 °C 30.2in /  1022.7hPa SW 0.9mph /  1.4km/h 1mph /  1.6km/h 68% 0in /  0.0mm 0 W/m2
02:44 56.1 °F /  13.4 °C 45.7 °F /  7.6 °C 30.2in /  1022.7hPa SW 0.9mph /  1.4km/h 1mph /  1.6km/h 68% 0in /  0.0mm 0 W/m2
02:49 55.9 °F /  13.3 °C 45.9 °F /  7.7 °C 30.2in /  1022.7hPa Calm   1mph /  1.6km/h 69% 0in /  0.0mm 0 W/m2
02:54 55.8 °F /  13.2 °C 45.7 °F /  7.6 °C 30.2in /  1022.7hPa Calm     69% 0in /  0.0mm 0 W/m2
02:59 55.6 °F /  13.1 °C 46 °F /  7.8 °C 30.2in /  1022.7hPa Calm     70% 0in /  0.0mm 0 W/m2
03:04 55.2 °F /  12.9 °C 45.7 °F /  7.6 °C 30.2in /  1022.7hPa SW 0.9mph /  1.4km/h 2mph /  3.2km/h 70% 0in /  0.0mm 0 W/m2
03:09 55.4 °F /  13 °C 45.9 °F /  7.7 °C 30.2in /  1022.7hPa Calm   1mph /  1.6km/h 70% 0in /  0.0mm 0 W/m2
03:14 55.4 °F /  13 °C 45.9 °F /  7.7 °C 30.2in /  1022.7hPa Calm   1mph /  1.6km/h 70% 0in /  0.0mm 0 W/m2
03:19 55.2 °F /  12.9 °C 46 °F /  7.8 °C 30.2in /  1022.7hPa SE 0.9mph /  1.4km/h 2mph /  3.2km/h 71% 0in /  0.0mm 0 W/m2
03:24 55 °F /  12.8 °C 45.9 °F /  7.7 °C 30.2in /  1022.7hPa Calm     71% 0in /  0.0mm 0 W/m2
03:29 55 °F /  12.8 °C 45.9 °F /  7.7 °C 30.2in /  1022.7hPa Calm   2mph /  3.2km/h 71% 0in /  0.0mm 0 W/m2
03:34 54.9 °F /  12.7 °C 46 °F /  7.8 °C 30.2in /  1022.7hPa North 0.9mph /  1.4km/h 2mph /  3.2km/h 72% 0in /  0.0mm 0 W/m2
03:39 54.9 °F /  12.7 °C 46 °F /  7.8 °C 30.2in /  1022.7hPa Calm   3mph /  4.8km/h 72% 0in /  0.0mm 0 W/m2
03:44 54.9 °F /  12.7 °C 46 °F /  7.8 °C 30.2in /  1022.7hPa Calm   1mph /  1.6km/h 72% 0in /  0.0mm 0 W/m2
03:49 54.9 °F /  12.7 °C 46 °F /  7.8 °C 30.2in /  1022.7hPa West 0.9mph /  1.4km/h 1mph /  1.6km/h 72% 0in /  0.0mm 0 W/m2
03:54 54.5 °F /  12.5 °C 45.7 °F /  7.6 °C 30.2in /  1022.7hPa West 0.9mph /  1.4km/h 2mph /  3.2km/h 72% 0in /  0.0mm 0 W/m2
03:59 54.1 °F /  12.3 °C 45.7 °F /  7.6 °C 30.2in /  1022.7hPa SW 0.9mph /  1.4km/h 2mph /  3.2km/h 73% 0in /  0.0mm 0 W/m2
04:05 54.1 °F /  12.3 °C 45.7 °F /  7.6 °C 30.2in /  1022.7hPa Calm   1mph /  1.6km/h 73% 0in /  0.0mm 0 W/m2
04:10 54.1 °F /  12.3 °C 45.7 °F /  7.6 °C 30.2in /  1022.7hPa Calm     73% 0in /  0.0mm 0 W/m2
04:15 54.1 °F /  12.3 °C 45.7 °F /  7.6 °C 30.2in /  1022.7hPa SW 0.9mph /  1.4km/h 1mph /  1.6km/h 73% 0in /  0.0mm 0 W/m2
04:20 54 °F /  12.2 °C 45.5 °F /  7.5 °C 30.2in /  1022.7hPa Calm   1mph /  1.6km/h 73% 0in /  0.0mm 0 W/m2
04:25 54.1 °F /  12.3 °C 45.7 °F /  7.6 °C 30.2in /  1022.7hPa Calm   2mph /  3.2km/h 73% 0in /  0.0mm 0 W/m2
04:30 54.1 °F /  12.3 °C 45.7 °F /  7.6 °C 30.2in /  1022.7hPa Calm   1mph /  1.6km/h 73% 0in /  0.0mm 0 W/m2
04:35 54.1 °F /  12.3 °C 45.7 °F /  7.6 °C 30.2in /  1022.7hPa Calm     73% 0in /  0.0mm 0 W/m2
04:40 54 °F /  12.2 °C 45.5 °F /  7.5 °C 30.2in /  1022.7hPa Calm   1mph /  1.6km/h 73% 0in /  0.0mm 0 W/m2
04:45 54 °F /  12.2 °C 45.5 °F /  7.5 °C 30.2in /  1022.7hPa Calm     73% 0in /  0.0mm 0 W/m2
04:50 53.8 °F /  12.1 °C 45.7 °F /  7.6 °C 30.2in /  1022.7hPa Calm   1mph /  1.6km/h 74% 0in /  0.0mm 0 W/m2
04:55 53.8 °F /  12.1 °C 45.7 °F /  7.6 °C 30.2in /  1022.7hPa Calm   1mph /  1.6km/h 74% 0in /  0.0mm 0 W/m2
05:00 53.4 °F /  11.9 °C 45.3 °F /  7.4 °C 30.2in /  1022.7hPa Calm     74% 0in /  0.0mm 0 W/m2
05:05 53.2 °F /  11.8 °C 45.5 °F /  7.5 °C 30.2in /  1022.7hPa SW 2mph /  3.2km/h 2mph /  3.2km/h 75% 0in /  0.0mm 0 W/m2
05:10 53.1 °F /  11.7 °C 45.3 °F /  7.4 °C 30.2in /  1022.7hPa Calm   1mph /  1.6km/h 75% 0in /  0.0mm 0 W/m2
05:15 52.9 °F /  11.6 °C 45.1 °F /  7.3 °C 30.2in /  1022.7hPa SW 0.9mph /  1.4km/h 2mph /  3.2km/h 75% 0in /  0.0mm 0 W/m2
05:20 52.7 °F /  11.5 °C 45.3 °F /  7.4 °C 30.2in /  1022.7hPa SW 2mph /  3.2km/h 2mph /  3.2km/h 76% 0in /  0.0mm 0 W/m2
05:25 52.7 °F /  11.5 °C 45.3 °F /  7.4 °C 30.2in /  1022.7hPa SW 0.9mph /  1.4km/h 2mph /  3.2km/h 76% 0in /  0.0mm 0 W/m2
05:30 52.9 °F /  11.6 °C 45.5 °F /  7.5 °C 30.2in /  1022.7hPa Calm   1mph /  1.6km/h 76% 0in /  0.0mm 0 W/m2
05:35 52.9 °F /  11.6 °C 45.5 °F /  7.5 °C 30.2in /  1022.7hPa Calm   1mph /  1.6km/h 76% 0in /  0.0mm 0 W/m2
05:40 52.5 °F /  11.4 °C 45.1 °F /  7.3 °C 30.2in /  1022.7hPa SW 0.9mph /  1.4km/h 2mph /  3.2km/h 76% 0in /  0.0mm 0 W/m2
05:45 52.5 °F /  11.4 °C 45.1 °F /  7.3 °C 30.2in /  1022.7hPa Calm     76% 0in /  0.0mm 0 W/m2
05:50 52.3 °F /  11.3 °C 45.3 °F /  7.4 °C 30.2in /  1022.7hPa SW 0.9mph /  1.4km/h 1mph /  1.6km/h 77% 0in /  0.0mm 0 W/m2
05:55 52.3 °F /  11.3 °C 45.3 °F /  7.4 °C 30.2in /  1022.7hPa Calm   1mph /  1.6km/h 77% 0in /  0.0mm 0 W/m2
06:00 52.2 °F /  11.2 °C 45.1 °F /  7.3 °C 30.2in /  1022.7hPa Calm   1mph /  1.6km/h 77% 0in /  0.0mm 0 W/m2
06:06 52 °F /  11.1 °C 45.3 °F /  7.4 °C 30.2in /  1022.7hPa Calm   2mph /  3.2km/h 78% 0in /  0.0mm 0 W/m2
06:11 51.6 °F /  10.9 °C 45 °F /  7.2 °C 30.2in /  1022.7hPa SW 0.9mph /  1.4km/h 1mph /  1.6km/h 78% 0in /  0.0mm 0 W/m2
06:16 51.4 °F /  10.8 °C 44.8 °F /  7.1 °C 30.2in /  1022.7hPa Calm     78% 0in /  0.0mm 0 W/m2
06:21 51.3 °F /  10.7 °C 45 °F /  7.2 °C 30.2in /  1022.7hPa SW 1mph /  1.6km/h 1mph /  1.6km/h 79% 0in /  0.0mm 0 W/m2
06:26 51.1 °F /  10.6 °C 44.8 °F /  7.1 °C 30.2in /  1022.7hPa Calm     79% 0in /  0.0mm 0 W/m2
06:31 51.1 °F /  10.6 °C 45.1 °F /  7.3 °C 30.2in /  1022.7hPa Calm     80% 0in /  0.0mm 0 W/m2
06:36 51.1 °F /  10.6 °C 45.1 °F /  7.3 °C 30.2in /  1022.7hPa SW 0.9mph /  1.4km/h 1mph /  1.6km/h 80% 0in /  0.0mm 0 W/m2
06:41 51.1 °F /  10.6 °C 45.1 °F /  7.3 °C 30.2in /  1022.7hPa Calm   2mph /  3.2km/h 80% 0in /  0.0mm 0 W/m2
06:46 51.1 °F /  10.6 °C 45.1 °F /  7.3 °C 30.2in /  1022.7hPa SW 0.9mph /  1.4km/h 1mph /  1.6km/h 80% 0in /  0.0mm 0 W/m2
06:51 51.1 °F /  10.6 °C 44.8 °F /  7.1 °C 30.2in /  1022.7hPa Calm   2mph /  3.2km/h 79% 0in /  0.0mm 0 W/m2
06:56 51.1 °F /  10.6 °C 45.1 °F /  7.3 °C 30.2in /  1022.7hPa SW 2mph /  3.2km/h 2mph /  3.2km/h 80% 0in /  0.0mm 5 W/m2
07:01 51.1 °F /  10.6 °C 44.8 °F /  7.1 °C 30.2in /  1022.7hPa Calm     79% 0in /  0.0mm 7 W/m2
07:06 51.1 °F /  10.6 °C 45.1 °F /  7.3 °C 30.2in /  1022.7hPa SW 0.9mph /  1.4km/h 2mph /  3.2km/h 80% 0in /  0.0mm 11 W/m2
07:11 51.1 °F /  10.6 °C 45.1 °F /  7.3 °C 30.2in /  1022.7hPa Calm     80% 0in /  0.0mm 12 W/m2
07:16 50.9 °F /  10.5 °C 45 °F /  7.2 °C 30.2in /  1023.0hPa SW 0.9mph /  1.4km/h 1mph /  1.6km/h 80% 0in /  0.0mm 18 W/m2
07:21 50.7 °F /  10.4 °C 44.8 °F /  7.1 °C 30.2in /  1023.0hPa Calm   1mph /  1.6km/h 80% 0in /  0.0mm 21 W/m2
07:26 50.7 °F /  10.4 °C 44.8 °F /  7.1 °C 30.2in /  1023.0hPa Calm     80% 0in /  0.0mm 25 W/m2
07:31 50.5 °F /  10.3 °C 45 °F /  7.2 °C 30.2in /  1023.0hPa Calm   2mph /  3.2km/h 81% 0in /  0.0mm 28 W/m2
07:36 50.5 °F /  10.3 °C 45 °F /  7.2 °C 30.2in /  1023.0hPa Calm     81% 0in /  0.0mm 33 W/m2
07:41 50.7 °F /  10.4 °C 45.1 °F /  7.3 °C 30.2in /  1023.0hPa Calm   2mph /  3.2km/h 81% 0in /  0.0mm 35 W/m2
07:46 50.9 °F /  10.5 °C 45.3 °F /  7.4 °C 30.2in /  1023.0hPa Calm     81% 0in /  0.0mm 40 W/m2
07:51 51.1 °F /  10.6 °C 45.5 °F /  7.5 °C 30.2in /  1023.0hPa Calm   1mph /  1.6km/h 81% 0in /  0.0mm 44 W/m2
07:56 51.1 °F /  10.6 °C 45.5 °F /  7.5 °C 30.2in /  1023.0hPa Calm     81% 0in /  0.0mm 47 W/m2
08:01 51.4 °F /  10.8 °C 45.9 °F /  7.7 °C 30.2in /  1023.4hPa SW 0.9mph /  1.4km/h 1mph /  1.6km/h 81% 0in /  0.0mm 72 W/m2
08:06 51.6 °F /  10.9 °C 46 °F /  7.8 °C 30.2in /  1023.4hPa Calm   1mph /  1.6km/h 81% 0in /  0.0mm 104 W/m2
08:11 51.8 °F /  11 °C 46.2 °F /  7.9 °C 30.2in /  1023.4hPa Calm     81% 0in /  0.0mm 116 W/m2
08:16 52.2 °F /  11.2 °C 46.2 °F /  7.9 °C 30.2in /  1023.4hPa Calm   1mph /  1.6km/h 80% 0in /  0.0mm 127 W/m2
08:21 52.3 °F /  11.3 °C 46 °F /  7.8 °C 30.2in /  1023.4hPa Calm   1mph /  1.6km/h 79% 0in /  0.0mm 139 W/m2
08:26 52.9 °F /  11.6 °C 46.2 °F /  7.9 °C 30.2in /  1023.4hPa Calm     78% 0in /  0.0mm 148 W/m2
08:31 53.2 °F /  11.8 °C 45.9 °F /  7.7 °C 30.2in /  1023.4hPa SW 2mph /  3.2km/h 2mph /  3.2km/h 76% 0in /  0.0mm 162 W/m2
08:36 53.8 °F /  12.1 °C 46 °F /  7.8 °C 30.2in /  1023.4hPa SE 0.9mph /  1.4km/h 3mph /  4.8km/h 75% 0in /  0.0mm 174 W/m2
08:41 54.3 °F /  12.4 °C 46.2 °F /  7.9 °C 30.2in /  1023.4hPa SE 2mph /  3.2km/h 2mph /  3.2km/h 74% 0in /  0.0mm 190 W/m2
08:46 54.9 °F /  12.7 °C 46 °F /  7.8 °C 30.2in /  1023.4hPa Calm   2mph /  3.2km/h 72% 0in /  0.0mm 199 W/m2
08:51 55 °F /  12.8 °C 46.2 °F /  7.9 °C 30.2in /  1023.4hPa Calm     72% 0in /  0.0mm 214 W/m2
08:56 55.6 °F /  13.1 °C 46.8 °F /  8.2 °C 30.2in /  1023.4hPa NE 2mph /  3.2km/h 2mph /  3.2km/h 72% 0in /  0.0mm 227 W/m2
09:01 55.9 °F /  13.3 °C 46.8 °F /  8.2 °C 30.2in /  1023.4hPa Calm     71% 0in /  0.0mm 241 W/m2
09:06 56.1 °F /  13.4 °C 46.4 °F /  8 °C 30.2in /  1023.4hPa NE 0.9mph /  1.4km/h 2mph /  3.2km/h 70% 0in /  0.0mm 250 W/m2
09:11 56.7 °F /  13.7 °C 46.6 °F /  8.1 °C 30.2in /  1023.4hPa ENE 0.9mph /  1.4km/h 2mph /  3.2km/h 69% 0in /  0.0mm 264 W/m2
09:17 56.8 °F /  13.8 °C 46.8 °F /  8.2 °C 30.2in /  1023.4hPa ENE 0.9mph /  1.4km/h 1mph /  1.6km/h 69% 0in /  0.0mm 272 W/m2
09:22 57.2 °F /  14 °C 46.8 °F /  8.2 °C 30.2in /  1023.4hPa NNE 0.9mph /  1.4km/h 1mph /  1.6km/h 68% 0in /  0.0mm 290 W/m2
09:27 57.6 °F /  14.2 °C 46.8 °F /  8.2 °C 30.2in /  1023.4hPa East 0.9mph /  1.4km/h 2mph /  3.2km/h 67% 0in /  0.0mm 299 W/m2
09:32 57.7 °F /  14.3 °C 46.9 °F /  8.3 °C 30.2in /  1023.4hPa ESE 0.9mph /  1.4km/h 1mph /  1.6km/h 67% 0in /  0.0mm 316 W/m2
09:37 58.3 °F /  14.6 °C 47.3 °F /  8.5 °C 30.2in /  1023.4hPa SE 2mph /  3.2km/h 3mph /  4.8km/h 67% 0in /  0.0mm 276 W/m2
09:42 58.6 °F /  14.8 °C 47.3 °F /  8.5 °C 30.2in /  1023.4hPa East 0.9mph /  1.4km/h 2mph /  3.2km/h 66% 0in /  0.0mm 104 W/m2
09:47 59.2 °F /  15.1 °C 46.9 °F /  8.3 °C 30.2in /  1023.4hPa NNE 0.9mph /  1.4km/h 3mph /  4.8km/h 64% 0in /  0.0mm 330 W/m2
09:52 59.4 °F /  15.2 °C 47.1 °F /  8.4 °C 30.2in /  1023.4hPa East 0.9mph /  1.4km/h 6mph /  9.7km/h 64% 0in /  0.0mm 362 W/m2
09:57 59.9 °F /  15.5 °C 47.3 °F /  8.5 °C 30.2in /  1023.4hPa East 2mph /  3.2km/h 4mph /  6.4km/h 63% 0in /  0.0mm 376 W/m2
10:02 60.4 °F /  15.8 °C 47.3 °F /  8.5 °C 30.2in /  1023.4hPa NNE 2.9mph /  4.7km/h 4mph /  6.4km/h 62% 0in /  0.0mm 385 W/m2
10:07 60.6 °F /  15.9 °C 47.1 °F /  8.4 °C 30.2in /  1023.4hPa ENE 2mph /  3.2km/h 4mph /  6.4km/h 61% 0in /  0.0mm 399 W/m2
10:12 60.6 °F /  15.9 °C 47.1 °F /  8.4 °C 30.2in /  1023.4hPa NE 2mph /  3.2km/h 6mph /  9.7km/h 61% 0in /  0.0mm 404 W/m2
10:17 60.8 °F /  16 °C 47.7 °F /  8.7 °C 30.2in /  1023.4hPa NE 2.9mph /  4.7km/h 3mph /  4.8km/h 62% 0in /  0.0mm 417 W/m2
10:22 61.2 °F /  16.2 °C 47.1 °F /  8.4 °C 30.2in /  1023.4hPa NE 2mph /  3.2km/h 6mph /  9.7km/h 60% 0in /  0.0mm 422 W/m2
10:27 61.7 °F /  16.5 °C 47.7 °F /  8.7 °C 30.2in /  1023.4hPa NE 4mph /  6.4km/h 5mph /  8km/h 60% 0in /  0.0mm 434 W/m2
10:32 62.1 °F /  16.7 °C 47.5 °F /  8.6 °C 30.2in /  1023.7hPa NE 2.9mph /  4.7km/h 3mph /  4.8km/h 59% 0in /  0.0mm 457 W/m2
10:37 62.4 °F /  16.9 °C 47.5 °F /  8.6 °C 30.2in /  1023.4hPa NE 0.9mph /  1.4km/h 3mph /  4.8km/h 58% 0in /  0.0mm 466 W/m2
10:42 62.4 °F /  16.9 °C 47.5 °F /  8.6 °C 30.2in /  1023.4hPa Calm   3mph /  4.8km/h 58% 0in /  0.0mm 475 W/m2
10:47 62.6 °F /  17 °C 47.7 °F /  8.7 °C 30.2in /  1023.4hPa NNW 2.9mph /  4.7km/h 4mph /  6.4km/h 58% 0in /  0.0mm 487 W/m2
10:52 62.8 °F /  17.1 °C 47.8 °F /  8.8 °C 30.2in /  1023.4hPa East 0.9mph /  1.4km/h 3mph /  4.8km/h 58% 0in /  0.0mm 494 W/m2
10:57 63.1 °F /  17.3 °C 48.2 °F /  9 °C 30.2in /  1023.4hPa East 0.9mph /  1.4km/h 2mph /  3.2km/h 58% 0in /  0.0mm 503 W/m2
11:02 63.7 °F /  17.6 °C 48.2 °F /  9 °C 30.2in /  1023.4hPa ESE 2.9mph /  4.7km/h 4mph /  6.4km/h 57% 0in /  0.0mm 517 W/m2
11:07 64 °F /  17.8 °C 48.6 °F /  9.2 °C 30.2in /  1023.4hPa Calm   7mph /  11.3km/h 57% 0in /  0.0mm 526 W/m2
11:12 64.8 °F /  18.2 °C 48.7 °F /  9.3 °C 30.2in /  1023.4hPa ESE 2mph /  3.2km/h 3mph /  4.8km/h 56% 0in /  0.0mm 536 W/m2
11:17 65.1 °F /  18.4 °C 49.1 °F /  9.5 °C 30.2in /  1023.4hPa ENE 0.9mph /  1.4km/h 6mph /  9.7km/h 56% 0in /  0.0mm 541 W/m2
11:22 65.3 °F /  18.5 °C 48.7 °F /  9.3 °C 30.2in /  1023.4hPa SE 2mph /  3.2km/h 4mph /  6.4km/h 55% 0in /  0.0mm 552 W/m2
11:27 65.7 °F /  18.7 °C 49.1 °F /  9.5 °C 30.2in /  1023.4hPa ENE 2.9mph /  4.7km/h 5mph /  8km/h 55% 0in /  0.0mm 559 W/m2
11:32 65.7 °F /  18.7 °C 48.6 °F /  9.2 °C 30.2in /  1023.4hPa SSE 2.9mph /  4.7km/h 3mph /  4.8km/h 54% 0in /  0.0mm 568 W/m2
11:37 66 °F /  18.9 °C 48.9 °F /  9.4 °C 30.2in /  1023.4hPa NE 2mph /  3.2km/h 4mph /  6.4km/h 54% 0in /  0.0mm 578 W/m2
11:43 66.4 °F /  19.1 °C 49.6 °F /  9.8 °C 30.2in /  1023.4hPa East 2.9mph /  4.7km/h 5mph /  8km/h 55% 0in /  0.0mm 584 W/m2
11:48 66.7 °F /  19.3 °C 49.6 °F /  9.8 °C 30.2in /  1023.4hPa NE 2mph /  3.2km/h 3mph /  4.8km/h 54% 0in /  0.0mm 592 W/m2
11:53 66.7 °F /  19.3 °C 49.6 °F /  9.8 °C 30.2in /  1023.4hPa ESE 2mph /  3.2km/h 3mph /  4.8km/h 54% 0in /  0.0mm 598 W/m2
11:58 66.9 °F /  19.4 °C 49.8 °F /  9.9 °C 30.2in /  1023.4hPa ENE 0.9mph /  1.4km/h 4mph /  6.4km/h 54% 0in /  0.0mm 605 W/m2
12:03 67.3 °F /  19.6 °C 49.6 °F /  9.8 °C 30.2in /  1023.4hPa NE 2mph /  3.2km/h 5mph /  8km/h 53% 0in /  0.0mm 613 W/m2
12:08 66.9 °F /  19.4 °C 50.2 °F /  10.1 °C 30.2in /  1023.4hPa NE 0.9mph /  1.4km/h 3mph /  4.8km/h 55% 0in /  0.0mm 612 W/m2
12:13 67.3 °F /  19.6 °C 50.5 °F /  10.3 °C 30.2in /  1023.0hPa NW 4mph /  6.4km/h 5mph /  8km/h 55% 0in /  0.0mm 621 W/m2
12:18 67.8 °F /  19.9 °C 50.5 °F /  10.3 °C 30.2in /  1023.0hPa North 0.9mph /  1.4km/h 3mph /  4.8km/h 54% 0in /  0.0mm 626 W/m2
12:23 68.4 °F /  20.2 °C 50.5 °F /  10.3 °C 30.2in /  1023.0hPa ESE 0.9mph /  1.4km/h 5mph /  8km/h 53% 0in /  0.0mm 628 W/m2
12:28 69.1 °F /  20.6 °C 50.7 °F /  10.4 °C 30.2in /  1023.0hPa ENE 2.9mph /  4.7km/h 4mph /  6.4km/h 52% 0in /  0.0mm 635 W/m2
12:33 68.7 °F /  20.4 °C 49.8 °F /  9.9 °C 30.2in /  1023.0hPa East 2.9mph /  4.7km/h 4mph /  6.4km/h 51% 0in /  0.0mm 638 W/m2
12:38 68.9 °F /  20.5 °C 51.1 °F /  10.6 °C 30.2in /  1023.0hPa ESE 0.9mph /  1.4km/h 2mph /  3.2km/h 53% 0in /  0.0mm 642 W/m2
12:43 69.4 °F /  20.8 °C 51.1 °F /  10.6 °C 30.2in /  1023.0hPa ENE 4mph /  6.4km/h 4mph /  6.4km/h 52% 0in /  0.0mm 647 W/m2
12:48 69.6 °F /  20.9 °C 52.2 °F /  11.2 °C 30.2in /  1022.7hPa NW 2mph /  3.2km/h 2mph /  3.2km/h 54% 0in /  0.0mm 650 W/m2
12:53 70.2 °F /  21.2 °C 51.3 °F /  10.7 °C 30.2in /  1022.7hPa SE 0.9mph /  1.4km/h 4mph /  6.4km/h 51% 0in /  0.0mm 656 W/m2
12:58 70.9 °F /  21.6 °C 50.7 °F /  10.4 °C 30.2in /  1022.7hPa ESE 2.9mph /  4.7km/h 7mph /  11.3km/h 49% 0in /  0.0mm 654 W/m2
13:03 71.1 °F /  21.7 °C 50.9 °F /  10.5 °C 30.2in /  1022.7hPa Calm   4mph /  6.4km/h 49% 0in /  0.0mm 659 W/m2
13:08 71.4 °F /  21.9 °C 50.7 °F /  10.4 °C 30.2in /  1022.7hPa ENE 2mph /  3.2km/h 7mph /  11.3km/h 48% 0in /  0.0mm 659 W/m2
13:13 71.2 °F /  21.8 °C 51.1 °F /  10.6 °C 30.2in /  1022.7hPa West 0.9mph /  1.4km/h 2mph /  3.2km/h 49% 0in /  0.0mm 661 W/m2
13:18 71.4 °F /  21.9 °C 49.6 °F /  9.8 °C 30.2in /  1022.4hPa ESE 2mph /  3.2km/h 4mph /  6.4km/h 46% 0in /  0.0mm 664 W/m2
13:23 71.4 °F /  21.9 °C 50.2 °F /  10.1 °C 30.2in /  1022.4hPa NE 2mph /  3.2km/h 5mph /  8km/h 47% 0in /  0.0mm 663 W/m2
13:28 71.4 °F /  21.9 °C 50.7 °F /  10.4 °C 30.2in /  1022.4hPa ESE 2.9mph /  4.7km/h 6mph /  9.7km/h 48% 0in /  0.0mm 664 W/m2
13:33 72 °F /  22.2 °C 50.7 °F /  10.4 °C 30.2in /  1022.4hPa Calm   2mph /  3.2km/h 47% 0in /  0.0mm 666 W/m2
13:38 72.3 °F /  22.4 °C 50.4 °F /  10.2 °C 30.2in /  1022.4hPa ENE 0.9mph /  1.4km/h 1mph /  1.6km/h 46% 0in /  0.0mm 664 W/m2
13:43 72.7 °F /  22.6 °C 50.7 °F /  10.4 °C 30.2in /  1022.4hPa Calm   4mph /  6.4km/h 46% 0in /  0.0mm 666 W/m2
13:48 72.9 °F /  22.7 °C 50.4 °F /  10.2 °C 30.2in /  1022.4hPa NE 4mph /  6.4km/h 6mph /  9.7km/h 45% 0in /  0.0mm 666 W/m2
13:53 72.9 °F /  22.7 °C 50.4 °F /  10.2 °C 30.2in /  1022.4hPa ESE 2.9mph /  4.7km/h 4mph /  6.4km/h 45% 0in /  0.0mm 664 W/m2
13:58 73 °F /  22.8 °C 49.8 °F /  9.9 °C 30.2in /  1022.0hPa East 2mph /  3.2km/h 4mph /  6.4km/h 44% 0in /  0.0mm 663 W/m2
14:03 73.2 °F /  22.9 °C 50 °F /  10 °C 30.2in /  1022.0hPa SSW 0.9mph /  1.4km/h 2mph /  3.2km/h 44% 0in /  0.0mm 661 W/m2
14:08 73.6 °F /  23.1 °C 49.1 °F /  9.5 °C 30.2in /  1022.0hPa WSW 2mph /  3.2km/h 3mph /  4.8km/h 42% 0in /  0.0mm 659 W/m2
14:13 73.8 °F /  23.2 °C 49.3 °F /  9.6 °C 30.2in /  1022.0hPa WSW 2mph /  3.2km/h 2mph /  3.2km/h 42% 0in /  0.0mm 654 W/m2
14:18 73.8 °F /  23.2 °C 49.8 °F /  9.9 °C 30.2in /  1022.0hPa NE 2mph /  3.2km/h 3mph /  4.8km/h 43% 0in /  0.0mm 652 W/m2
14:24 73.9 °F /  23.3 °C 50 °F /  10 °C 30.2in /  1022.0hPa SE 2mph /  3.2km/h 4mph /  6.4km/h 43% 0in /  0.0mm 654 W/m2
14:29 74.1 °F /  23.4 °C 50.2 °F /  10.1 °C 30.2in /  1021.7hPa ENE 4mph /  6.4km/h 5mph /  8km/h 43% 0in /  0.0mm 649 W/m2
14:34 73.9 °F /  23.3 °C 48.7 °F /  9.3 °C 30.2in /  1021.7hPa ESE 2.9mph /  4.7km/h 6mph /  9.7km/h 41% 0in /  0.0mm 647 W/m2
14:39 73.9 °F /  23.3 °C 47.5 °F /  8.6 °C 30.2in /  1021.7hPa East 0.9mph /  1.4km/h 3mph /  4.8km/h 39% 0in /  0.0mm 640 W/m2
14:44 73.9 °F /  23.3 °C 48 °F /  8.9 °C 30.2in /  1021.7hPa East 2mph /  3.2km/h 6mph /  9.7km/h 40% 0in /  0.0mm 640 W/m2
14:49 74.1 °F /  23.4 °C 48.2 °F /  9 °C 30.2in /  1021.3hPa West 0.9mph /  1.4km/h 3mph /  4.8km/h 40% 0in /  0.0mm 638 W/m2
14:54 74.3 °F /  23.5 °C 49.6 °F /  9.8 °C 30.2in /  1021.3hPa ESE 6mph /  9.7km/h 7mph /  11.3km/h 42% 0in /  0.0mm 633 W/m2
14:59 74.5 °F /  23.6 °C 49.3 °F /  9.6 °C 30.2in /  1021.3hPa ESE 0.9mph /  1.4km/h 2mph /  3.2km/h 41% 0in /  0.0mm 622 W/m2
15:04 74.8 °F /  23.8 °C 48.2 °F /  9 °C 30.2in /  1021.3hPa NNW 2mph /  3.2km/h 2mph /  3.2km/h 39% 0in /  0.0mm 619 W/m2
15:09 75.6 °F /  24.2 °C 48.2 °F /  9 °C 30.2in /  1021.3hPa NNE 2mph /  3.2km/h 2mph /  3.2km/h 38% 0in /  0.0mm 624 W/m2
15:14 75.4 °F /  24.1 °C 48 °F /  8.9 °C 30.2in /  1021.3hPa East 4mph /  6.4km/h 8mph /  12.9km/h 38% 0in /  0.0mm 582 W/m2
15:19 74.8 °F /  23.8 °C 46.8 °F /  8.2 °C 30.2in /  1021.3hPa Calm   4mph /  6.4km/h 37% 0in /  0.0mm 183 W/m2
15:24 74.1 °F /  23.4 °C 45.5 °F /  7.5 °C 30.2in /  1021.3hPa SE 0.9mph /  1.4km/h 8mph /  12.9km/h 36% 0in /  0.0mm 139 W/m2
15:29 73.8 °F /  23.2 °C 45.1 °F /  7.3 °C 30.2in /  1021.3hPa East 2mph /  3.2km/h 3mph /  4.8km/h 36% 0in /  0.0mm 113 W/m2
15:34 73.2 °F /  22.9 °C 44.6 °F /  7 °C 30.2in /  1021.3hPa East 0.9mph /  1.4km/h 2mph /  3.2km/h 36% 0in /  0.0mm 107 W/m2
15:39 73 °F /  22.8 °C 43.7 °F /  6.5 °C 30.2in /  1021.0hPa ENE 0.9mph /  1.4km/h 2mph /  3.2km/h 35% 0in /  0.0mm 304 W/m2
15:44 73 °F /  22.8 °C 43.7 °F /  6.5 °C 30.2in /  1021.0hPa East 2.9mph /  4.7km/h 3mph /  4.8km/h 35% 0in /  0.0mm 325 W/m2
15:49 73 °F /  22.8 °C 45.1 °F /  7.3 °C 30.2in /  1021.0hPa East 0.9mph /  1.4km/h 2mph /  3.2km/h 37% 0in /  0.0mm 563 W/m2
15:54 73.6 °F /  23.1 °C 45 °F /  7.2 °C 30.2in /  1021.0hPa East 0.9mph /  1.4km/h 1mph /  1.6km/h 36% 0in /  0.0mm 543 W/m2
15:59 73.9 °F /  23.3 °C 44.6 °F /  7 °C 30.1in /  1020.7hPa Calm   2mph /  3.2km/h 35% 0in /  0.0mm 591 W/m2
16:04 74.5 °F /  23.6 °C 45 °F /  7.2 °C 30.1in /  1020.7hPa Calm   3mph /  4.8km/h 35% 0in /  0.0mm 578 W/m2
16:09 74.8 °F /  23.8 °C 45.3 °F /  7.4 °C 30.1in /  1020.7hPa ESE 0.9mph /  1.4km/h 2mph /  3.2km/h 35% 0in /  0.0mm 557 W/m2
16:15 75.4 °F /  24.1 °C 47.3 °F /  8.5 °C 30.1in /  1020.7hPa SE 2.9mph /  4.7km/h 4mph /  6.4km/h 37% 0in /  0.0mm 550 W/m2
16:20 75.7 °F /  24.3 °C 46.2 °F /  7.9 °C 30.1in /  1020.7hPa ESE 2mph /  3.2km/h 2mph /  3.2km/h 35% 0in /  0.0mm 534 W/m2
16:25 76.3 °F /  24.6 °C 45.9 °F /  7.7 °C 30.1in /  1020.7hPa NE 4mph /  6.4km/h 4mph /  6.4km/h 34% 0in /  0.0mm 527 W/m2
16:30 76.3 °F /  24.6 °C 45.1 °F /  7.3 °C 30.1in /  1020.7hPa Calm   3mph /  4.8km/h 33% 0in /  0.0mm 527 W/m2
16:35 76.3 °F /  24.6 °C 45.1 °F /  7.3 °C 30.1in /  1020.7hPa ESE 4.9mph /  7.9km/h 8mph /  12.9km/h 33% 0in /  0.0mm 515 W/m2
16:40 76.3 °F /  24.6 °C 45.9 °F /  7.7 °C 30.1in /  1020.3hPa ESE 0.9mph /  1.4km/h 3mph /  4.8km/h 34% 0in /  0.0mm 503 W/m2
16:45 76.5 °F /  24.7 °C 45.1 °F /  7.3 °C 30.1in /  1020.3hPa NNE 0.9mph /  1.4km/h 8mph /  12.9km/h 33% 0in /  0.0mm 475 W/m2
16:50 76.5 °F /  24.7 °C 45.1 °F /  7.3 °C 30.1in /  1020.3hPa SE 4mph /  6.4km/h 6mph /  9.7km/h 33% 0in /  0.0mm 466 W/m2
16:55 76.1 °F /  24.5 °C 44.1 °F /  6.7 °C 30.1in /  1020.3hPa NE 2.9mph /  4.7km/h 6mph /  9.7km/h 32% 0in /  0.0mm 454 W/m2
17:00 75.7 °F /  24.3 °C 45.3 °F /  7.4 °C 30.1in /  1020.3hPa East 0.9mph /  1.4km/h 4mph /  6.4km/h 34% 0in /  0.0mm 438 W/m2
17:05 75.7 °F /  24.3 °C 45.3 °F /  7.4 °C 30.1in /  1020.3hPa ESE 0.9mph /  1.4km/h 4mph /  6.4km/h 34% 0in /  0.0mm 422 W/m2
17:10 75.7 °F /  24.3 °C 45.3 °F /  7.4 °C 30.1in /  1020.3hPa Calm   3mph /  4.8km/h 34% 0in /  0.0mm 404 W/m2
17:15 75.9 °F /  24.4 °C 45.5 °F /  7.5 °C 30.1in /  1020.3hPa East 0.9mph /  1.4km/h 2mph /  3.2km/h 34% 0in /  0.0mm 387 W/m2
17:20 76.5 °F /  24.7 °C 45.1 °F /  7.3 °C 30.1in /  1020.0hPa East 0.9mph /  1.4km/h 1mph /  1.6km/h 33% 0in /  0.0mm 355 W/m2
17:25 76.6 °F /  24.8 °C 44.6 °F /  7 °C 30.1in /  1020.0hPa SE 4mph /  6.4km/h 4mph /  6.4km/h 32% 0in /  0.0mm 348 W/m2
17:30 76.5 °F /  24.7 °C 44.4 °F /  6.9 °C 30.1in /  1020.3hPa NE 2mph /  3.2km/h 3mph /  4.8km/h 32% 0in /  0.0mm 325 W/m2
17:35 76.3 °F /  24.6 °C 45.9 °F /  7.7 °C 30.1in /  1020.3hPa ENE 2.9mph /  4.7km/h 8mph /  12.9km/h 34% 0in /  0.0mm 313 W/m2
17:40 75.9 °F /  24.4 °C 45.5 °F /  7.5 °C 30.1in /  1020.0hPa North 0.9mph /  1.4km/h 1mph /  1.6km/h 34% 0in /  0.0mm 255 W/m2
17:45 75.9 °F /  24.4 °C 45.5 °F /  7.5 °C 30.1in /  1020.0hPa NNW 0.9mph /  1.4km/h 2mph /  3.2km/h 34% 0in /  0.0mm 137 W/m2
17:50 75.9 °F /  24.4 °C 46.2 °F /  7.9 °C 30.1in /  1020.0hPa Calm   2mph /  3.2km/h 35% 0in /  0.0mm 207 W/m2
17:55 75.6 °F /  24.2 °C 45.1 °F /  7.3 °C 30.1in /  1020.0hPa NNE 0.9mph /  1.4km/h 2mph /  3.2km/h 34% 0in /  0.0mm 299 W/m2
18:00 75.6 °F /  24.2 °C 45.1 °F /  7.3 °C 30.1in /  1020.0hPa Calm   1mph /  1.6km/h 34% 0in /  0.0mm 287 W/m2
18:05 75.7 °F /  24.3 °C 46.9 °F /  8.3 °C 30.1in /  1020.0hPa Calm   1mph /  1.6km/h 36% 0in /  0.0mm 271 W/m2
18:10 75.9 °F /  24.4 °C 46.2 °F /  7.9 °C 30.1in /  1020.0hPa SE 0.9mph /  1.4km/h 3mph /  4.8km/h 35% 0in /  0.0mm 267 W/m2
18:15 75.7 °F /  24.3 °C 45.3 °F /  7.4 °C 30.1in /  1020.0hPa East 2.9mph /  4.7km/h 3mph /  4.8km/h 34% 0in /  0.0mm 257 W/m2
18:20 75.9 °F /  24.4 °C 45.5 °F /  7.5 °C 30.1in /  1020.0hPa Calm   1mph /  1.6km/h 34% 0in /  0.0mm 243 W/m2
18:25 75.9 °F /  24.4 °C 45.5 °F /  7.5 °C 30.1in /  1020.0hPa ENE 0.9mph /  1.4km/h 4mph /  6.4km/h 34% 0in /  0.0mm 225 W/m2
18:30 75.6 °F /  24.2 °C 45.1 °F /  7.3 °C 30.1in /  1020.0hPa Calm   2mph /  3.2km/h 34% 0in /  0.0mm 200 W/m2
18:35 75.4 °F /  24.1 °C 44.2 °F /  6.8 °C 30.1in /  1020.0hPa West 2.9mph /  4.7km/h 6mph /  9.7km/h 33% 0in /  0.0mm 200 W/m2
18:40 75.2 °F /  24 °C 43.3 °F /  6.3 °C 30.1in /  1020.0hPa WNW 0.9mph /  1.4km/h 2mph /  3.2km/h 32% 0in /  0.0mm 169 W/m2
18:45 75 °F /  23.9 °C 43.2 °F /  6.2 °C 30.1in /  1020.0hPa WNW 4mph /  6.4km/h 4mph /  6.4km/h 32% 0in /  0.0mm 153 W/m2
18:50 75 °F /  23.9 °C 43.2 °F /  6.2 °C 30.1in /  1020.0hPa Calm   2mph /  3.2km/h 32% 0in /  0.0mm 141 W/m2
18:56 75 °F /  23.9 °C 43.9 °F /  6.6 °C 30.1in /  1020.0hPa Calm   1mph /  1.6km/h 33% 0in /  0.0mm 130 W/m2
19:01 75 °F /  23.9 °C 43.2 °F /  6.2 °C 30.1in /  1020.0hPa Calm   2mph /  3.2km/h 32% 0in /  0.0mm 116 W/m2
19:06 74.8 °F /  23.8 °C 43.9 °F /  6.6 °C 30.1in /  1020.0hPa West 0.9mph /  1.4km/h 4mph /  6.4km/h 33% 0in /  0.0mm 105 W/m2
19:11 74.8 °F /  23.8 °C 46 °F /  7.8 °C 30.1in /  1020.0hPa Calm   1mph /  1.6km/h 36% 0in /  0.0mm 88 W/m2
19:16 74.3 °F /  23.5 °C 44.1 °F /  6.7 °C 30.1in /  1020.0hPa Calm   3mph /  4.8km/h 34% 0in /  0.0mm 81 W/m2
19:21 74.1 °F /  23.4 °C 43.9 °F /  6.6 °C 30.1in /  1020.0hPa ENE 0.9mph /  1.4km/h 2mph /  3.2km/h 34% 0in /  0.0mm 70 W/m2
19:26 74.1 °F /  23.4 °C 43.9 °F /  6.6 °C 30.1in /  1020.0hPa Calm     34% 0in /  0.0mm 62 W/m2
19:31 73.9 °F /  23.3 °C 47.5 °F /  8.6 °C 30.1in /  1020.0hPa NW 0.9mph /  1.4km/h 1mph /  1.6km/h 39% 0in /  0.0mm 51 W/m2
19:36 73.2 °F /  22.9 °C 48.7 °F /  9.3 °C 30.1in /  1020.0hPa Calm   2mph /  3.2km/h 42% 0in /  0.0mm 44 W/m2
19:41 72.3 °F /  22.4 °C 48.6 °F /  9.2 °C 30.1in /  1020.0hPa NW 0.9mph /  1.4km/h 2mph /  3.2km/h 43% 0in /  0.0mm 33 W/m2
19:46 71.8 °F /  22.1 °C 48 °F /  8.9 °C 30.1in /  1020.0hPa Calm     43% 0in /  0.0mm 26 W/m2
19:51 70.9 °F /  21.6 °C 47.8 °F /  8.8 °C 30.1in /  1020.0hPa Calm   2mph /  3.2km/h 44% 0in /  0.0mm 23 W/m2
19:56 70 °F /  21.1 °C 47.7 °F /  8.7 °C 30.1in /  1020.0hPa Calm     45% 0in /  0.0mm 19 W/m2
20:01 69.1 °F /  20.6 °C 47.5 °F /  8.6 °C 30.1in /  1020.0hPa Calm   2mph /  3.2km/h 46% 0in /  0.0mm 16 W/m2
20:06 68.4 °F /  20.2 °C 47.3 °F /  8.5 °C 30.1in /  1020.0hPa Calm   1mph /  1.6km/h 47% 0in /  0.0mm 12 W/m2
20:11 67.5 °F /  19.7 °C 47.7 °F /  8.7 °C 30.1in /  1020.0hPa Calm     49% 0in /  0.0mm 11 W/m2
20:16 66.7 °F /  19.3 °C 47.5 °F /  8.6 °C 30.1in /  1020.0hPa Calm   2mph /  3.2km/h 50% 0in /  0.0mm 7 W/m2
20:21 65.8 °F /  18.8 °C 47.1 °F /  8.4 °C 30.1in /  1020.0hPa SW 2mph /  3.2km/h 2mph /  3.2km/h 51% 0in /  0.0mm 5 W/m2
20:26 65.3 °F /  18.5 °C 47.3 °F /  8.5 °C 30.1in /  1020.0hPa Calm   1mph /  1.6km/h 52% 0in /  0.0mm 0 W/m2
20:31 64.6 °F /  18.1 °C 47.1 °F /  8.4 °C 30.1in /  1020.0hPa Calm   1mph /  1.6km/h 53% 0in /  0.0mm 0 W/m2
20:36 64 °F /  17.8 °C 46.6 °F /  8.1 °C 30.1in /  1020.0hPa Calm     53% 0in /  0.0mm 0 W/m2
20:41 63.7 °F /  17.6 °C 46.8 °F /  8.2 °C 30.1in /  1020.0hPa Calm     54% 0in /  0.0mm 0 W/m2
20:46 63.1 °F /  17.3 °C 47.1 °F /  8.4 °C 30.1in /  1020.3hPa Calm     56% 0in /  0.0mm 0 W/m2
20:51 62.8 °F /  17.1 °C 47.3 °F /  8.5 °C 30.1in /  1020.3hPa Calm     57% 0in /  0.0mm 0 W/m2
20:56 62.2 °F /  16.8 °C 46.8 °F /  8.2 °C 30.1in /  1020.3hPa Calm     57% 0in /  0.0mm 0 W/m2
21:01 61.9 °F /  16.6 °C 46.9 °F /  8.3 °C 30.1in /  1020.3hPa Calm     58% 0in /  0.0mm 0 W/m2
21:06 61.5 °F /  16.4 °C 46.6 °F /  8.1 °C 30.1in /  1020.3hPa Calm   1mph /  1.6km/h 58% 0in /  0.0mm 0 W/m2
21:11 61.2 °F /  16.2 °C 46.8 °F /  8.2 °C 30.1in /  1020.3hPa Calm     59% 0in /  0.0mm 0 W/m2
21:16 61 °F /  16.1 °C 46.9 °F /  8.3 °C 30.1in /  1020.7hPa Calm     60% 0in /  0.0mm 0 W/m2
21:21 60.6 °F /  15.9 °C 46.6 °F /  8.1 °C 30.1in /  1020.7hPa Calm     60% 0in /  0.0mm 0 W/m2
21:26 60.3 °F /  15.7 °C 47.1 °F /  8.4 °C 30.1in /  1020.7hPa Calm     62% 0in /  0.0mm 0 W/m2
21:31 60.1 °F /  15.6 °C 46.9 °F /  8.3 °C 30.1in /  1020.7hPa Calm     62% 0in /  0.0mm 0 W/m2
21:36 59.7 °F /  15.4 °C 47.1 °F /  8.4 °C 30.1in /  1020.7hPa Calm     63% 0in /  0.0mm 0 W/m2
21:41 59.4 °F /  15.2 °C 46.8 °F /  8.2 °C 30.1in /  1020.7hPa Calm     63% 0in /  0.0mm 0 W/m2
21:46 59.2 °F /  15.1 °C 46.6 °F /  8.1 °C 30.1in /  1020.7hPa Calm     63% 0in /  0.0mm 0 W/m2
21:51 59 °F /  15 °C 46.8 °F /  8.2 °C 30.1in /  1020.7hPa Calm     64% 0in /  0.0mm 0 W/m2
21:56 58.6 °F /  14.8 °C 46.6 °F /  8.1 °C 30.1in /  1020.7hPa Calm     64% 0in /  0.0mm 0 W/m2
22:01 58.6 °F /  14.8 °C 47.3 °F /  8.5 °C 30.1in /  1020.7hPa Calm     66% 0in /  0.0mm 0 W/m2
22:06 58.3 °F /  14.6 °C 46.6 °F /  8.1 °C 30.1in /  1020.7hPa Calm     65% 0in /  0.0mm 0 W/m2
22:11 57.9 °F /  14.4 °C 46.6 °F /  8.1 °C 30.1in /  1020.7hPa Calm     66% 0in /  0.0mm 0 W/m2
22:16 57.7 °F /  14.3 °C 46.4 °F /  8 °C 30.1in /  1020.7hPa Calm     66% 0in /  0.0mm 0 W/m2
22:21 57.6 °F /  14.2 °C 46.2 °F /  7.9 °C 30.1in /  1020.7hPa Calm     66% 0in /  0.0mm 0 W/m2
22:26 57.4 °F /  14.1 °C 46 °F /  7.8 °C 30.2in /  1021.0hPa Calm     66% 0in /  0.0mm 0 W/m2
22:31 57 °F /  13.9 °C 46.2 °F /  7.9 °C 30.2in /  1021.0hPa Calm     67% 0in /  0.0mm 0 W/m2
22:36 57 °F /  13.9 °C 46.2 °F /  7.9 °C 30.2in /  1021.0hPa Calm   1mph /  1.6km/h 67% 0in /  0.0mm 0 W/m2
22:41 56.8 °F /  13.8 °C 46.4 °F /  8 °C 30.2in /  1021.3hPa Calm     68% 0in /  0.0mm 0 W/m2
22:46 56.7 °F /  13.7 °C 46.2 °F /  7.9 °C 30.2in /  1021.3hPa SW 2mph /  3.2km/h 2mph /  3.2km/h 68% 0in /  0.0mm 0 W/m2
22:51 56.7 °F /  13.7 °C 46.2 °F /  7.9 °C 30.2in /  1021.3hPa SW 0.9mph /  1.4km/h 2mph /  3.2km/h 68% 0in /  0.0mm 0 W/m2
22:56 56.7 °F /  13.7 °C 46.2 °F /  7.9 °C 30.2in /  1021.3hPa Calm   1mph /  1.6km/h 68% 0in /  0.0mm 0 W/m2
23:01 56.8 °F /  13.8 °C 46.4 °F /  8 °C 30.2in /  1021.3hPa Calm   2mph /  3.2km/h 68% 0in /  0.0mm 0 W/m2
23:06 57.6 °F /  14.2 °C 46.2 °F /  7.9 °C 30.2in /  1021.3hPa Calm   1mph /  1.6km/h 66% 0in /  0.0mm 0 W/m2
23:11 58.1 °F /  14.5 °C 46.8 °F /  8.2 °C 30.2in /  1021.3hPa Calm   2mph /  3.2km/h 66% 0in /  0.0mm 0 W/m2
23:16 58.3 °F /  14.6 °C 46.2 °F /  7.9 °C 30.2in /  1021.3hPa NW 2mph /  3.2km/h 3mph /  4.8km/h 64% 0in /  0.0mm 0 W/m2
23:21 58.8 °F /  14.9 °C 45.9 °F /  7.7 °C 30.2in /  1021.3hPa NW 0.9mph /  1.4km/h 1mph /  1.6km/h 62% 0in /  0.0mm 0 W/m2
23:26 59.5 °F /  15.3 °C 46.6 °F /  8.1 °C 30.2in /  1021.3hPa SW 0.9mph /  1.4km/h 2mph /  3.2km/h 62% 0in /  0.0mm 0 W/m2
23:31 59.5 °F /  15.3 °C 46.6 °F /  8.1 °C 30.2in /  1021.7hPa SW 0.9mph /  1.4km/h 1mph /  1.6km/h 62% 0in /  0.0mm 0 W/m2
23:36 59.4 °F /  15.2 °C 45.9 °F /  7.7 °C 30.2in /  1021.7hPa SSE 2mph /  3.2km/h 2mph /  3.2km/h 61% 0in /  0.0mm 0 W/m2
23:41 59.4 °F /  15.2 °C 45.9 °F /  7.7 °C 30.2in /  1021.7hPa Calm   1mph /  1.6km/h 61% 0in /  0.0mm 0 W/m2
23:47 59.4 °F /  15.2 °C 45.9 °F /  7.7 °C 30.2in /  1021.7hPa Calm   1mph /  1.6km/h 61% 0in /  0.0mm 0 W/m2
23:52 59.2 °F /  15.1 °C 46.2 °F /  7.9 °C 30.2in /  1021.7hPa Calm   1mph /  1.6km/h 62% 0in /  0.0mm 0 W/m2
23:57 59.2 °F /  15.1 °C 45.7 °F /  7.6 °C 30.2in /  1021.7hPa WSW 2.9mph /  4.7km/h 3mph /  4.8km/h 61% 0in /  0.0mm 0 W/m2
Juneau County Weather
Compliments of Weather Underground - 4 mb